Time;durP1;ratioP1;P1;durP2;ratioP2;P2;SDS_P1;SDS_P2;PMS_P1;PMS_P2;Temp;Humidity;BMP_temperature;BMP_pressure;BME280_temperature;BME280_humidity;BME280_pressure;Samples;Min_cycle;Max_cycle;Signal;HPM_P1;HPM_P2
2023/01/25 00:01:28;;;;;;;47.00;26.13;;;4.50;99.90;;;;;;5020161;28;20083;-68
2023/01/25 00:03:53;;;;;;;55.27;27.30;;;4.40;99.90;;;;;;5019042;28;20307;-67
2023/01/25 00:06:19;;;;;;;49.33;26.00;;;4.30;99.90;;;;;;5024359;28;20022;-67
2023/01/25 00:08:51;;;;;;;49.20;26.50;;;4.40;99.90;;;;;;5023259;28;20029;-68
2023/01/25 00:11:18;;;;;;;50.33;25.85;;;4.40;99.90;;;;;;5020542;28;20024;-67
2023/01/25 00:13:44;;;;;;;50.45;25.33;;;4.30;99.90;;;;;;5020952;28;20434;-67
2023/01/25 00:16:10;;;;;;;56.92;28.02;;;4.30;99.90;;;;;;5016697;28;20116;-67
2023/01/25 00:18:35;;;;;;;51.97;27.17;;;4.30;99.90;;;;;;5019602;28;20432;-68
2023/01/25 00:21:17;;;;;;;62.07;28.90;;;4.30;99.90;;;;;;5018228;28;20493;-68
2023/01/25 00:23:43;;;;;;;69.68;33.45;;;4.40;99.90;;;;;;5022798;28;20049;-66
2023/01/25 00:26:09;;;;;;;63.97;31.13;;;4.30;99.90;;;;;;5021748;28;20514;-67
2023/01/25 00:28:35;;;;;;;59.83;29.57;;;4.30;99.90;;;;;;5012286;28;20120;-69
2023/01/25 00:31:02;;;;;;;61.63;29.58;;;4.30;99.90;;;;;;5022937;28;20045;-70
2023/01/25 00:33:50;;;;;;;55.50;26.02;;;4.30;99.90;;;;;;5022123;28;20021;-67
2023/01/25 00:36:24;;;;;;;51.72;27.23;;;4.30;99.90;;;;;;5002137;28;20030;-66
2023/01/25 00:38:52;;;;;;;58.92;28.70;;;4.30;99.90;;;;;;5027550;28;20032;-67
2023/01/25 00:41:18;;;;;;;58.10;29.05;;;4.30;99.90;;;;;;5020123;28;20033;-68
2023/01/25 00:43:44;;;;;;;61.57;27.87;;;4.30;99.90;;;;;;5023381;28;20488;-66
2023/01/25 00:46:14;;;;;;;62.37;29.50;;;4.30;99.90;;;;;;5019040;28;20789;-67
2023/01/25 00:48:40;;;;;;;61.38;27.58;;;4.30;99.90;;;;;;5020624;28;20029;-68
2023/01/25 00:51:05;;;;;;;63.13;30.30;;;4.30;99.90;;;;;;5023091;28;20088;-67
2023/01/25 00:53:31;;;;;;;61.17;29.43;;;4.30;99.90;;;;;;5021102;28;20031;-67
2023/01/25 00:55:56;;;;;;;67.97;30.33;;;4.40;99.90;;;;;;5023488;28;20299;-67
2023/01/25 00:58:22;;;;;;;58.30;31.13;;;4.40;99.90;;;;;;5021659;28;20505;-67
2023/01/25 01:00:48;;;;;;;62.27;28.47;;;4.40;99.90;;;;;;5023174;28;20038;-67
2023/01/25 01:03:13;;;;;;;66.10;30.40;;;4.30;99.90;;;;;;5021513;28;20120;-69
2023/01/25 01:05:39;;;;;;;61.73;29.10;;;4.30;99.90;;;;;;5021772;28;20387;-67
2023/01/25 01:08:04;;;;;;;60.47;28.90;;;4.30;99.90;;;;;;5024721;28;20021;-68
2023/01/25 01:10:30;;;;;;;64.20;30.37;;;4.20;99.90;;;;;;5023061;28;20041;-68
2023/01/25 01:12:56;;;;;;;67.77;30.50;;;4.20;99.90;;;;;;5023993;28;20287;-68
2023/01/25 01:15:21;;;;;;;64.70;30.97;;;4.20;99.90;;;;;;5019694;28;20442;-67
2023/01/25 01:17:47;;;;;;;65.93;29.33;;;4.20;99.90;;;;;;5017716;28;20029;-66
2023/01/25 01:20:12;;;;;;;60.07;30.23;;;4.30;99.90;;;;;;5020565;28;20029;-68
2023/01/25 01:22:38;;;;;;;60.97;29.53;;;4.20;99.90;;;;;;5024926;28;20029;-67
2023/01/25 01:25:04;;;;;;;61.93;29.20;;;4.20;99.90;;;;;;5019011;28;20038;-67
2023/01/25 01:27:30;;;;;;;56.80;27.63;;;4.20;99.90;;;;;;5018033;28;20100;-67
2023/01/25 01:29:55;;;;;;;52.43;27.70;;;4.20;99.90;;;;;;5026770;28;20112;-67
2023/01/25 01:32:21;;;;;;;56.83;28.03;;;4.20;99.90;;;;;;5024972;28;20032;-67
2023/01/25 01:34:46;;;;;;;55.20;27.70;;;4.20;99.90;;;;;;5021268;28;20440;-67
2023/01/25 01:37:12;;;;;;;52.10;27.70;;;4.20;99.90;;;;;;5017577;28;20030;-67
2023/01/25 01:39:37;;;;;;;59.33;28.57;;;4.20;99.90;;;;;;5022149;28;20052;-69
2023/01/25 01:42:03;;;;;;;54.07;26.57;;;4.20;99.90;;;;;;5009512;28;20044;-67
2023/01/25 01:44:50;;;;;;;55.80;29.27;;;4.20;99.90;;;;;;5020465;28;20038;-68
2023/01/25 01:47:25;;;;;;;90.40;30.92;;;4.20;99.90;;;;;;5018152;28;20030;-67
2023/01/25 01:49:56;;;;;;;55.30;27.90;;;4.20;99.90;;;;;;5017940;28;20030;-69
2023/01/25 01:52:27;;;;;;;54.25;27.35;;;4.20;99.90;;;;;;5025983;28;20023;-67
2023/01/25 01:55:11;;;;;;;53.80;27.35;;;4.20;99.90;;;;;;5020711;28;20413;-67
2023/01/25 01:57:45;;;;;;;56.95;28.52;;;4.20;99.90;;;;;;5015346;28;20025;-67
2023/01/25 02:00:16;;;;;;;56.70;27.60;;;4.10;99.90;;;;;;5026058;28;20052;-67
2023/01/25 02:02:42;;;;;;;56.35;28.33;;;4.20;99.90;;;;;;5017473;28;20018;-68
2023/01/25 02:05:16;;;;;;;59.07;27.77;;;4.20;99.90;;;;;;5007503;28;20039;-67
2023/01/25 02:07:43;;;;;;;57.35;28.02;;;4.20;99.90;;;;;;5019076;28;20279;-68
2023/01/25 02:10:11;;;;;;;55.55;28.63;;;4.20;99.90;;;;;;5007722;28;20424;-68
2023/01/25 02:12:37;;;;;;;53.15;27.90;;;4.20;99.90;;;;;;5019586;28;20020;-67
2023/01/25 02:15:03;;;;;;;51.92;27.25;;;4.20;99.90;;;;;;5021181;28;20022;-67
2023/01/25 02:17:32;;;;;;;55.55;28.02;;;4.20;99.90;;;;;;5014623;28;20402;-68
2023/01/25 02:20:20;;;;;;;59.95;28.40;;;4.20;99.90;;;;;;5021806;28;20029;-67
2023/01/25 02:23:04;;;;;;;48.55;25.13;;;4.10;99.90;;;;;;5023068;28;20172;-67
2023/01/25 02:25:30;;;;;;;65.25;27.85;;;4.10;99.90;;;;;;5022667;28;20417;-67
2023/01/25 02:28:05;;;;;;;52.00;26.90;;;4.10;99.90;;;;;;5007779;28;20021;-67
2023/01/25 02:30:32;;;;;;;51.97;26.65;;;4.10;99.90;;;;;;5000351;28;20029;-67
2023/01/25 02:32:58;;;;;;;58.72;28.55;;;4.20;99.90;;;;;;5020789;28;20049;-67
2023/01/25 02:35:45;;;;;;;51.33;27.20;;;4.10;99.90;;;;;;5022068;28;20057;-67
2023/01/25 02:38:14;;;;;;;55.20;27.67;;;4.10;99.90;;;;;;5007646;28;20787;-68
2023/01/25 02:41:11;;;;;;;57.17;27.83;;;4.10;99.90;;;;;;5027308;28;20041;-67
2023/01/25 02:43:37;;;;;;;56.15;29.33;;;4.10;99.90;;;;;;5026228;28;20464;-68
2023/01/25 02:46:21;;;;;;;64.40;28.37;;;4.10;99.90;;;;;;5024729;28;20049;-67
2023/01/25 02:48:47;;;;;;;56.15;27.80;;;4.10;99.90;;;;;;5025398;28;20029;-69
2023/01/25 02:51:12;;;;;;;49.50;26.93;;;4.10;99.90;;;;;;5027841;28;20041;-68
2023/01/25 02:53:38;;;;;;;59.77;27.37;;;4.10;99.90;;;;;;5029690;28;20030;-69
2023/01/25 02:56:04;;;;;;;48.00;26.33;;;4.10;99.90;;;;;;5027019;28;20312;-68
2023/01/25 02:58:29;;;;;;;56.50;27.65;;;4.00;99.90;;;;;;5028143;28;20036;-67
2023/01/25 03:00:56;;;;;;;51.67;27.20;;;4.00;99.90;;;;;;5024999;28;20072;-68
2023/01/25 03:03:22;;;;;;;56.47;27.13;;;4.10;99.90;;;;;;5024540;28;20067;-66
2023/01/25 03:05:47;;;;;;;58.63;28.03;;;4.10;99.90;;;;;;5026626;28;20037;-67
2023/01/25 03:08:13;;;;;;;52.53;25.40;;;4.10;99.90;;;;;;5028877;28;20032;-67
2023/01/25 03:10:38;;;;;;;54.73;28.07;;;4.10;99.90;;;;;;5022463;28;20048;-67
2023/01/25 03:13:04;;;;;;;56.63;26.23;;;4.10;99.90;;;;;;5025692;28;20029;-67
2023/01/25 03:15:30;;;;;;;51.60;26.87;;;4.10;99.90;;;;;;5026760;28;20018;-67
2023/01/25 03:17:56;;;;;;;56.27;26.80;;;4.00;99.90;;;;;;5020135;28;20025;-67
2023/01/25 03:20:22;;;;;;;50.47;26.92;;;4.10;99.90;;;;;;5025150;28;20325;-67
2023/01/25 03:22:48;;;;;;;53.00;27.00;;;4.00;99.90;;;;;;5009090;28;20123;-68
2023/01/25 03:25:14;;;;;;;52.90;25.83;;;4.00;99.90;;;;;;5022378;28;20033;-67
2023/01/25 03:27:39;;;;;;;49.60;26.20;;;3.90;99.90;;;;;;5023802;28;20183;-67
2023/01/25 03:30:06;;;;;;;53.47;26.60;;;4.00;99.90;;;;;;5024345;28;20270;-67
2023/01/25 03:32:32;;;;;;;56.88;27.23;;;4.00;99.90;;;;;;5022605;28;20083;-67
2023/01/25 03:34:58;;;;;;;53.38;27.13;;;4.00;99.90;;;;;;5023079;28;20045;-67
2023/01/25 03:37:28;;;;;;;52.92;26.83;;;4.00;99.90;;;;;;5026361;28;20034;-68
2023/01/25 03:39:54;;;;;;;53.25;27.42;;;4.00;99.90;;;;;;5021680;28;20057;-67
2023/01/25 03:42:21;;;;;;;49.67;25.10;;;4.00;99.90;;;;;;5024127;28;20104;-67
2023/01/25 03:44:46;;;;;;;54.33;26.65;;;4.00;99.90;;;;;;5022861;28;20417;-67
2023/01/25 03:47:12;;;;;;;53.42;27.75;;;3.90;99.90;;;;;;5017974;28;20021;-67
2023/01/25 03:49:38;;;;;;;56.67;27.27;;;3.90;99.90;;;;;;5020824;28;20116;-68
2023/01/25 03:52:03;;;;;;;52.80;27.23;;;3.90;99.90;;;;;;5022807;28;20335;-67
2023/01/25 03:54:29;;;;;;;52.50;27.23;;;3.90;99.90;;;;;;5022046;28;20063;-67
2023/01/25 03:56:55;;;;;;;52.33;27.23;;;4.00;99.90;;;;;;5025567;28;20113;-66
2023/01/25 03:59:20;;;;;;;52.53;27.13;;;3.90;99.90;;;;;;5022858;28;20033;-68
2023/01/25 04:01:46;;;;;;;56.47;27.10;;;4.00;99.90;;;;;;5023815;28;20025;-67
2023/01/25 04:04:11;;;;;;;55.97;26.37;;;4.00;99.90;;;;;;5028828;28;20417;-67
2023/01/25 04:06:37;;;;;;;55.33;27.57;;;4.00;99.90;;;;;;5027434;28;20101;-67
2023/01/25 04:09:03;;;;;;;54.90;28.30;;;3.90;99.90;;;;;;5025172;28;20098;-67
2023/01/25 04:11:28;;;;;;;56.33;27.17;;;3.90;99.90;;;;;;5026153;28;20555;-68
2023/01/25 04:13:54;;;;;;;53.50;27.27;;;3.90;99.90;;;;;;5026990;28;20037;-68
2023/01/25 04:16:19;;;;;;;51.07;26.53;;;3.90;99.90;;;;;;5009549;28;20030;-67
2023/01/25 04:18:45;;;;;;;52.50;26.27;;;3.90;99.90;;;;;;5023731;28;20022;-67
2023/01/25 04:21:11;;;;;;;52.80;25.97;;;3.90;99.90;;;;;;5020176;28;20029;-68
2023/01/25 04:23:36;;;;;;;49.77;25.17;;;3.90;99.90;;;;;;5027066;28;20024;-67
2023/01/25 04:26:05;;;;;;;61.10;26.97;;;3.90;99.90;;;;;;5024671;28;20496;-68
2023/01/25 04:28:32;;;;;;;49.85;26.15;;;3.90;99.90;;;;;;5021118;28;20024;-66
2023/01/25 04:30:58;;;;;;;54.90;26.88;;;3.90;99.90;;;;;;5022788;28;20029;-67
2023/01/25 04:33:23;;;;;;;57.03;25.48;;;3.90;99.90;;;;;;5010033;28;20410;-68
2023/01/25 04:35:49;;;;;;;50.47;25.20;;;3.80;99.90;;;;;;5027680;28;20029;-69
2023/01/25 04:38:15;;;;;;;52.50;25.98;;;3.80;99.90;;;;;;5020353;28;20398;-70
2023/01/25 04:40:42;;;;;;;53.33;27.55;;;3.80;99.90;;;;;;5020989;28;20037;-68
2023/01/25 04:43:08;;;;;;;;;;;3.90;99.90;;;;;;5020298;28;20045;-68
2023/01/25 04:45:35;;;;;;;53.63;26.25;;;3.90;99.90;;;;;;5018154;28;20740;-69
2023/01/25 04:48:09;;;;;;;58.00;27.45;;;3.90;99.90;;;;;;5019381;28;20040;-69
2023/01/25 04:50:40;;;;;;;51.92;25.58;;;3.90;99.90;;;;;;5018501;28;20041;-68
2023/01/25 04:53:07;;;;;;;58.28;28.17;;;3.90;99.90;;;;;;5020440;28;20025;-68
2023/01/25 04:55:33;;;;;;;56.15;25.92;;;3.90;99.90;;;;;;5019294;28;20045;-68
2023/01/25 04:58:00;;;;;;;55.30;27.58;;;3.90;99.90;;;;;;5020253;28;20036;-67
2023/01/25 05:00:27;;;;;;;;;;;4.00;99.90;;;;;;5024259;28;20045;-68
2023/01/25 05:02:53;;;;;;;50.10;26.35;;;4.00;99.90;;;;;;5014788;28;19913;-68
2023/01/25 05:05:19;;;;;;;54.88;27.73;;;4.00;99.90;;;;;;5021303;28;20045;-68
2023/01/25 05:07:44;;;;;;;61.97;28.73;;;3.90;99.90;;;;;;5026161;28;20588;-68
2023/01/25 05:10:10;;;;;;;58.23;29.53;;;3.90;99.90;;;;;;5016808;28;20044;-68
2023/01/25 05:12:36;;;;;;;65.30;29.73;;;3.90;99.90;;;;;;5021555;28;20087;-68
2023/01/25 05:15:03;;;;;;;61.70;31.42;;;3.90;99.90;;;;;;5020873;28;20444;-67
2023/01/25 05:17:29;;;;;;;64.72;32.55;;;3.90;99.90;;;;;;5019021;28;20022;-67
2023/01/25 05:19:54;;;;;;;65.20;33.30;;;3.90;99.90;;;;;;5021426;28;20079;-67
2023/01/25 05:22:20;;;;;;;62.40;32.47;;;4.00;99.90;;;;;;5022974;28;20026;-68
2023/01/25 05:24:47;;;;;;;63.47;32.92;;;3.90;99.90;;;;;;5017706;28;20575;-67
2023/01/25 05:27:15;;;;;;;61.63;30.08;;;4.00;99.90;;;;;;5023964;28;20559;-67
2023/01/25 05:29:43;;;;;;;59.17;29.30;;;4.00;99.90;;;;;;5022208;28;20393;-67
2023/01/25 05:32:10;;;;;;;57.65;29.95;;;4.00;99.90;;;;;;5019923;28;20028;-68
2023/01/25 05:34:36;;;;;;;53.05;27.30;;;3.90;99.90;;;;;;5019056;28;20040;-67
2023/01/25 05:37:03;;;;;;;61.25;27.17;;;4.00;99.90;;;;;;5019994;28;20036;-68
2023/01/25 05:39:29;;;;;;;57.10;28.05;;;4.00;99.90;;;;;;5020189;28;20041;-68
2023/01/25 05:41:54;;;;;;;57.17;29.23;;;3.90;99.90;;;;;;5019143;28;20045;-68
2023/01/25 05:44:20;;;;;;;57.10;28.43;;;3.90;99.90;;;;;;5018579;28;20054;-68
2023/01/25 05:46:46;;;;;;;60.00;29.80;;;3.90;99.90;;;;;;5020789;28;20513;-68
2023/01/25 05:49:12;;;;;;;63.75;30.15;;;3.80;99.90;;;;;;5015342;28;20527;-67
2023/01/25 05:51:37;;;;;;;61.93;29.70;;;3.90;99.90;;;;;;5019849;28;20051;-67
2023/01/25 05:54:08;;;;;;;61.07;28.83;;;3.90;99.90;;;;;;5020856;28;20965;-67
2023/01/25 05:56:33;;;;;;;62.35;28.65;;;3.80;99.90;;;;;;5023528;28;20271;-68
2023/01/25 05:59:00;;;;;;;61.63;30.67;;;3.80;99.90;;;;;;5019904;28;20026;-67
2023/01/25 06:01:27;;;;;;;67.38;30.85;;;3.80;99.90;;;;;;5019212;28;20030;-68
2023/01/25 06:03:53;;;;;;;49.78;26.75;;;3.80;99.90;;;;;;5019548;28;20038;-68
2023/01/25 06:06:19;;;;;;;;;;;3.80;99.90;;;;;;5017295;28;20053;-68
2023/01/25 06:08:45;;;;;;;62.28;29.30;;;3.80;99.90;;;;;;5019985;28;19963;-69
2023/01/25 06:11:22;;;;;;;71.45;33.25;;;3.80;99.90;;;;;;5023827;28;20029;-67
2023/01/25 06:13:48;;;;;;;55.72;28.50;;;3.80;99.90;;;;;;5019752;28;20049;-67
2023/01/25 06:16:15;;;;;;;60.90;28.92;;;3.80;99.90;;;;;;5003890;28;20025;-68
2023/01/25 06:18:41;;;;;;;60.22;30.13;;;3.80;99.90;;;;;;5019606;28;20072;-70
2023/01/25 06:21:06;;;;;;;64.68;31.50;;;3.80;99.90;;;;;;5023048;28;20045;-69
2023/01/25 06:23:32;;;;;;;64.00;30.33;;;3.80;99.90;;;;;;5019352;28;20041;-70
2023/01/25 06:25:59;;;;;;;54.73;27.83;;;3.70;99.90;;;;;;5003401;28;20741;-69
2023/01/25 06:28:25;;;;;;;55.78;27.08;;;3.70;99.90;;;;;;5019474;28;20375;-67
2023/01/25 06:30:51;;;;;;;63.10;28.17;;;3.70;99.90;;;;;;5019663;28;20087;-67
2023/01/25 06:33:16;;;;;;;51.97;27.70;;;3.70;99.90;;;;;;5006384;28;20064;-67
2023/01/25 06:35:42;;;;;;;57.33;30.07;;;3.70;99.90;;;;;;5023336;28;20734;-68
2023/01/25 06:38:08;;;;;;;49.40;25.73;;;3.70;99.90;;;;;;5023116;28;20148;-68
2023/01/25 06:40:34;;;;;;;55.00;27.23;;;3.70;99.90;;;;;;5016377;28;20044;-67
2023/01/25 06:43:10;;;;;;;54.20;27.77;;;3.80;99.90;;;;;;5025508;28;20112;-68
2023/01/25 06:45:35;;;;;;;62.47;29.38;;;3.80;99.90;;;;;;5020014;28;20124;-68
2023/01/25 06:48:01;;;;;;;58.20;27.13;;;3.70;99.90;;;;;;5016308;28;20418;-68
2023/01/25 06:50:27;;;;;;;53.90;26.63;;;3.80;99.90;;;;;;5000066;28;20286;-68
2023/01/25 06:52:53;;;;;;;59.97;28.43;;;3.80;99.90;;;;;;5015086;28;20038;-67
2023/01/25 06:55:19;;;;;;;54.58;27.50;;;3.80;99.90;;;;;;5019148;28;20432;-68
2023/01/25 06:57:45;;;;;;;58.70;29.55;;;3.80;99.90;;;;;;5014483;28;20691;-68
2023/01/25 07:00:11;;;;;;;55.92;27.80;;;3.80;99.90;;;;;;5022199;28;20034;-67
2023/01/25 07:02:37;;;;;;;60.38;28.50;;;3.80;99.90;;;;;;5015376;28;20033;-70
2023/01/25 07:05:03;;;;;;;62.53;29.97;;;3.70;99.90;;;;;;5018768;28;20041;-67
2023/01/25 07:07:29;;;;;;;;;;;3.80;99.90;;;;;;5020393;28;20033;-69
2023/01/25 07:09:54;;;;;;;56.90;27.35;;;3.70;99.90;;;;;;5003016;28;20462;-69
2023/01/25 07:12:21;;;;;;;60.07;27.53;;;3.80;99.90;;;;;;5020321;28;20030;-65
2023/01/25 07:14:48;;;;;;;57.15;28.40;;;3.80;99.90;;;;;;5016162;28;20022;-68
2023/01/25 07:17:14;;;;;;;62.53;27.45;;;3.80;99.90;;;;;;5018473;28;20519;-71
2023/01/25 07:19:40;;;;;;;62.17;29.25;;;3.70;99.90;;;;;;5018641;28;20068;-71
2023/01/25 07:22:05;;;;;;;62.50;29.83;;;3.70;99.90;;;;;;5021239;28;20049;-65
2023/01/25 07:24:31;;;;;;;59.10;28.60;;;3.80;99.90;;;;;;5021079;28;20041;-66
2023/01/25 07:26:57;;;;;;;54.97;27.10;;;3.80;99.90;;;;;;5020799;28;20287;-67
2023/01/25 07:29:22;;;;;;;49.42;26.58;;;3.70;99.90;;;;;;5021645;28;20033;-64
2023/01/25 07:31:48;;;;;;;56.90;26.90;;;3.70;99.90;;;;;;5024488;28;20501;-66
2023/01/25 07:34:13;;;;;;;53.88;28.25;;;3.70;99.90;;;;;;5017005;28;20026;-66
2023/01/25 07:36:40;;;;;;;54.93;27.67;;;3.80;99.90;;;;;;5023677;28;20478;-65
2023/01/25 07:39:09;;;;;;;60.95;29.05;;;3.80;99.90;;;;;;5009517;28;20033;-66
2023/01/25 07:41:34;;;;;;;63.75;29.85;;;3.90;99.90;;;;;;5022807;28;20026;-68
2023/01/25 07:44:00;;;;;;;57.43;27.97;;;3.90;99.90;;;;;;5023963;28;20025;-65
2023/01/25 07:46:25;;;;;;;57.77;29.43;;;3.80;99.90;;;;;;5020209;28;20041;-68
2023/01/25 07:48:52;;;;;;;57.70;28.23;;;3.80;99.90;;;;;;5022932;28;20128;-67
2023/01/25 07:51:22;;;;;;;58.58;28.92;;;3.80;99.90;;;;;;5024961;28;20040;-67
2023/01/25 07:54:02;;;;;;;56.92;27.67;;;3.90;99.90;;;;;;5016188;28;20043;-66
2023/01/25 07:56:31;;;;;;;56.90;28.65;;;3.90;99.90;;;;;;5021584;28;20052;-66
2023/01/25 07:58:58;;;;;;;65.88;30.58;;;3.90;99.90;;;;;;5027510;28;20030;-67
2023/01/25 08:01:26;;;;;;;69.32;29.63;;;3.90;99.90;;;;;;5023828;28;20065;-64
2023/01/25 08:03:54;;;;;;;62.75;29.38;;;3.80;99.90;;;;;;5018684;28;20072;-66
2023/01/25 08:06:29;;;;;;;58.83;28.55;;;3.80;99.90;;;;;;5001724;28;20041;-67
2023/01/25 08:08:56;;;;;;;68.43;28.95;;;3.90;99.90;;;;;;5024476;28;20018;-67
2023/01/25 08:11:25;;;;;;;60.47;28.52;;;4.00;99.90;;;;;;5019995;28;20144;-66
2023/01/25 08:13:51;;;;;;;55.15;27.67;;;3.90;99.90;;;;;;5015765;28;20033;-66
2023/01/25 08:16:18;;;;;;;61.77;29.13;;;4.00;99.90;;;;;;5022698;28;20033;-66
2023/01/25 08:18:53;;;;;;;59.78;29.55;;;4.00;99.90;;;;;;5024303;28;20528;-66
2023/01/25 08:21:18;;;;;;;56.65;27.73;;;4.00;99.90;;;;;;5021041;28;20095;-65
2023/01/25 08:23:44;;;;;;;62.23;29.83;;;4.00;99.90;;;;;;5020634;28;20061;-65
2023/01/25 08:26:12;;;;;;;59.20;28.60;;;4.00;99.90;;;;;;5023543;28;20037;-66
2023/01/25 08:28:38;;;;;;;57.35;28.35;;;4.00;99.90;;;;;;5021302;28;20034;-64
2023/01/25 08:31:26;;;;;;;53.40;28.10;;;4.00;99.90;;;;;;5023322;28;20497;-65
2023/01/25 08:33:51;;;;;;;61.13;29.77;;;4.10;99.90;;;;;;5020379;28;20040;-64
2023/01/25 08:36:18;;;;;;;53.30;28.08;;;4.20;99.90;;;;;;5016535;28;20037;-63
2023/01/25 08:38:46;;;;;;;56.70;28.08;;;4.20;99.90;;;;;;5025357;28;20099;-66
2023/01/25 08:41:15;;;;;;;54.85;27.80;;;4.30;99.90;;;;;;5020611;28;20717;-64
2023/01/25 08:43:41;;;;;;;55.65;27.33;;;4.20;99.90;;;;;;5021214;28;20572;-64
2023/01/25 08:46:07;;;;;;;;;;;4.20;99.90;;;;;;5020033;28;20038;-66
2023/01/25 08:48:33;;;;;;;55.55;28.38;;;4.30;99.90;;;;;;5020474;28;19966;-67
2023/01/25 08:50:59;;;;;;;52.63;27.38;;;4.30;99.90;;;;;;5023163;28;20053;-67
2023/01/25 08:53:27;;;;;;;63.75;29.60;;;4.30;99.90;;;;;;5019224;28;20048;-67
2023/01/25 08:55:53;;;;;;;50.45;27.17;;;4.30;99.90;;;;;;5007035;28;20065;-65
2023/01/25 08:58:21;;;;;;;61.47;28.53;;;4.30;99.90;;;;;;5012782;28;20133;-69
2023/01/25 09:00:47;;;;;;;52.92;26.90;;;4.30;99.90;;;;;;5021588;28;20284;-65
2023/01/25 09:03:13;;;;;;;45.30;26.15;;;4.20;99.90;;;;;;5022599;28;20029;-65
2023/01/25 09:05:40;;;;;;;54.10;28.02;;;4.10;99.90;;;;;;5025051;28;20044;-68
2023/01/25 09:08:08;;;;;;;57.20;28.95;;;4.20;99.90;;;;;;5024732;28;20140;-67
2023/01/25 09:10:34;;;;;;;61.85;28.35;;;4.20;99.90;;;;;;5019332;28;20588;-68
2023/01/25 09:13:00;;;;;;;65.20;30.25;;;4.30;99.90;;;;;;5023235;28;20099;-64
2023/01/25 09:15:26;;;;;;;60.53;27.47;;;4.20;99.90;;;;;;5022626;28;20065;-67
2023/01/25 09:17:53;;;;;;;55.53;27.55;;;4.30;99.90;;;;;;5018393;28;20046;-68
2023/01/25 09:20:19;;;;;;;61.25;28.60;;;4.40;99.90;;;;;;5018623;28;20041;-66
2023/01/25 09:22:45;;;;;;;56.85;28.48;;;4.30;99.90;;;;;;5022215;28;20040;-67
2023/01/25 09:25:10;;;;;;;58.73;27.87;;;4.40;99.90;;;;;;5021725;28;20045;-68
2023/01/25 09:27:36;;;;;;;54.03;28.90;;;4.30;99.90;;;;;;5020322;28;20280;-64
2023/01/25 09:30:04;;;;;;;53.50;28.83;;;4.20;99.90;;;;;;5022664;28;20036;-68
2023/01/25 09:32:29;;;;;;;66.10;30.95;;;4.30;99.90;;;;;;5023173;28;20030;-68
2023/01/25 09:34:55;;;;;;;64.97;31.93;;;4.40;99.90;;;;;;5003998;28;20077;-68
2023/01/25 09:37:20;;;;;;;55.83;29.97;;;4.40;99.90;;;;;;5022195;28;20163;-68
2023/01/25 09:39:46;;;;;;;54.30;26.70;;;4.50;99.90;;;;;;5022229;28;20040;-70
2023/01/25 09:42:21;;;;;;;58.80;27.87;;;4.40;99.90;;;;;;5003736;28;20541;-69
2023/01/25 09:45:09;;;;;;;57.40;27.75;;;4.40;99.90;;;;;;5020279;28;20040;-69
2023/01/25 09:47:40;;;;;;;52.25;26.25;;;4.40;99.90;;;;;;5018657;28;20067;-65
2023/01/25 09:50:21;;;;;;;55.83;25.85;;;4.40;99.90;;;;;;5022790;28;20087;-67
2023/01/25 09:53:42;;;;;;;56.50;27.63;;;4.30;99.90;;;;;;5000504;28;20056;-69
2023/01/25 09:56:07;;;;;;;55.80;25.55;;;4.30;99.90;;;;;;4945088;28;20046;-68
2023/01/25 09:58:45;;;;;;;48.83;25.20;;;4.30;99.90;;;;;;5006268;28;20112;-67
2023/01/25 10:01:43;;;;;;;45.75;24.77;;;4.30;99.90;;;;;;5016562;28;20033;-66
2023/01/25 10:04:19;;;;;;;50.17;25.88;;;4.30;99.90;;;;;;4986594;28;20038;-70
2023/01/25 10:06:51;;;;;;;42.50;24.33;;;4.40;99.90;;;;;;5016245;28;20030;-69
2023/01/25 10:09:25;;;;;;;50.40;25.95;;;4.30;99.90;;;;;;5019828;28;20029;-70
2023/01/25 10:11:51;;;;;;;49.15;25.13;;;4.40;99.90;;;;;;5014752;28;20049;-71
2023/01/25 10:14:20;;;;;;;53.17;26.07;;;4.30;99.90;;;;;;5019872;28;20095;-70
2023/01/25 10:16:45;;;;;;;57.67;26.50;;;4.40;99.90;;;;;;5015593;28;20021;-66
2023/01/25 10:19:30;;;;;;;47.77;25.23;;;4.50;99.90;;;;;;5020990;28;20468;-68
2023/01/25 10:22:14;;;;;;;49.65;25.85;;;4.50;99.90;;;;;;5017686;28;20037;-70
2023/01/25 10:24:48;;;;;;;47.92;24.80;;;4.50;99.90;;;;;;5019118;28;20120;-66
2023/01/25 10:27:29;;;;;;;46.13;25.00;;;4.40;99.90;;;;;;5016331;28;20036;-67
2023/01/25 10:29:57;;;;;;;53.95;26.58;;;4.40;99.90;;;;;;5018076;28;20033;-70
2023/01/25 10:32:31;;;;;;;51.70;26.52;;;4.50;99.90;;;;;;5019046;28;20543;-69
2023/01/25 10:35:15;;;;;;;49.30;25.25;;;4.40;99.90;;;;;;5019683;28;20033;-67
2023/01/25 10:37:41;;;;;;;50.85;25.70;;;4.50;99.90;;;;;;5017867;28;20029;-68
2023/01/25 10:40:17;;;;;;;47.43;26.90;;;4.50;99.90;;;;;;5023678;28;20040;-64
2023/01/25 10:43:01;;;;;;;50.85;25.25;;;4.60;99.90;;;;;;5022811;28;20269;-65
2023/01/25 10:45:27;;;;;;;50.15;26.92;;;4.50;99.90;;;;;;5020119;28;20163;-64
2023/01/25 10:48:02;;;;;;;46.13;25.10;;;4.60;99.90;;;;;;5017503;28;20129;-65
2023/01/25 10:50:41;;;;;;;45.00;23.98;;;4.60;99.90;;;;;;5018202;28;20044;-65
2023/01/25 10:53:27;;;;;;;50.28;26.58;;;4.50;99.90;;;;;;5020492;28;20032;-67
2023/01/25 10:56:10;;;;;;;53.03;26.65;;;4.60;99.90;;;;;;5022540;28;20658;-68
2023/01/25 10:58:42;;;;;;;49.63;25.80;;;4.70;99.90;;;;;;5019258;28;20139;-67
2023/01/25 11:01:29;;;;;;;51.33;26.45;;;4.60;99.90;;;;;;5021536;28;20041;-66
2023/01/25 11:03:56;;;;;;;50.17;25.70;;;4.60;99.90;;;;;;5018265;28;20038;-65
2023/01/25 11:06:45;;;;;;;48.65;24.52;;;4.60;99.90;;;;;;5024800;28;20116;-67
2023/01/25 11:09:19;;;;;;;51.28;26.25;;;4.70;99.90;;;;;;5023313;28;20114;-66
2023/01/25 11:11:54;;;;;;;46.88;24.85;;;4.70;99.90;;;;;;5021355;28;20033;-70
2023/01/25 11:14:23;;;;;;;54.85;26.52;;;4.70;99.90;;;;;;5021869;28;20128;-65
2023/01/25 11:16:48;;;;;;;52.55;25.70;;;4.60;99.90;;;;;;5020327;28;20030;-69
2023/01/25 11:19:32;;;;;;;48.40;25.00;;;4.70;99.90;;;;;;5005423;28;20161;-70
2023/01/25 11:22:00;;;;;;;48.72;24.30;;;4.70;99.90;;;;;;5027260;28;20551;-69
2023/01/25 11:24:31;;;;;;;48.03;24.08;;;4.70;99.90;;;;;;5021976;28;20061;-72
2023/01/25 11:27:19;;;;;;;50.70;24.40;;;4.70;99.90;;;;;;5024195;28;20032;-66
2023/01/25 11:30:04;;;;;;;50.50;25.30;;;4.80;99.90;;;;;;5021748;28;20077;-68
2023/01/25 11:32:30;;;;;;;39.33;20.35;;;4.70;99.90;;;;;;5022584;28;20036;-68
2023/01/25 11:34:56;;;;;;;41.72;22.52;;;4.70;99.90;;;;;;5006951;28;20616;-73
2023/01/25 11:37:25;;;;;;;42.40;22.42;;;4.80;99.90;;;;;;5024812;28;20033;-70
2023/01/25 11:40:02;;;;;;;39.42;19.88;;;4.80;99.90;;;;;;5024376;28;20034;-70
2023/01/25 11:42:33;;;;;;;42.22;19.25;;;4.80;99.90;;;;;;5019184;28;20034;-66
2023/01/25 11:45:35;;;;;;;35.65;18.52;;;4.90;99.90;;;;;;5022368;28;20541;-68
2023/01/25 11:48:28;;;;;;;33.10;19.88;;;4.90;99.50;;;;;;5018063;28;20022;-66
2023/01/25 11:51:05;;;;;;;36.45;20.15;;;4.80;99.80;;;;;;5024465;28;20029;-70
2023/01/25 11:53:34;;;;;;;39.25;19.70;;;4.90;99.90;;;;;;5024464;28;20117;-66
2023/01/25 11:56:26;;;;;;;39.30;20.85;;;4.80;99.70;;;;;;5017729;28;20444;-69
2023/01/25 11:59:00;;;;;;;40.22;21.38;;;4.80;99.90;;;;;;5022636;28;20034;-68
2023/01/25 12:01:32;;;;;;;39.28;20.75;;;4.80;99.90;;;;;;5020223;28;20489;-67
2023/01/25 12:04:31;;;;;;;37.15;20.00;;;4.80;99.80;;;;;;5022994;28;20071;-68
2023/01/25 12:07:03;;;;;;;38.60;20.30;;;4.70;99.50;;;;;;5019924;28;20037;-67
2023/01/25 12:09:37;;;;;;;41.30;20.42;;;4.70;99.90;;;;;;5023155;28;20029;-65
2023/01/25 12:12:11;;;;;;;36.42;19.40;;;4.70;99.90;;;;;;5020584;28;20029;-65
2023/01/25 12:14:46;;;;;;;42.42;20.65;;;4.60;99.60;;;;;;5024235;28;20397;-69
2023/01/25 12:18:06;;;;;;;39.15;22.27;;;4.60;99.80;;;;;;5020444;28;20079;-65
2023/01/25 12:20:43;;;;;;;42.15;22.92;;;4.60;99.90;;;;;;4962336;28;20067;-68
2023/01/25 12:23:35;;;;;;;49.55;25.05;;;4.60;99.90;;;;;;5020718;28;20034;-70
2023/01/25 12:26:18;;;;;;;47.85;23.75;;;4.60;99.70;;;;;;5021672;28;20079;-66
2023/01/25 12:29:19;;;;;;;39.30;21.65;;;4.60;99.90;;;;;;5021476;28;20112;-65
2023/01/25 12:32:10;;;;;;;37.30;20.00;;;4.50;99.90;;;;;;5004619;28;20041;-68
2023/01/25 12:34:39;;;;;;;39.63;21.25;;;4.50;99.90;;;;;;5019324;28;20544;-65
2023/01/25 12:37:14;;;;;;;40.47;21.98;;;4.60;99.90;;;;;;5023406;28;20029;-68
2023/01/25 12:39:45;;;;;;;40.53;20.98;;;4.50;99.80;;;;;;5024521;28;20144;-67
2023/01/25 12:42:25;;;;;;;41.10;21.45;;;4.40;99.30;;;;;;5022103;28;20029;-66
2023/01/25 12:45:03;;;;;;;43.22;21.55;;;4.60;99.90;;;;;;5020517;28;20038;-68
2023/01/25 12:47:49;;;;;;;50.70;23.00;;;4.60;99.90;;;;;;5021854;28;20029;-67
2023/01/25 12:50:40;;;;;;;39.55;22.13;;;4.60;99.90;;;;;;5021969;28;20030;-70
2023/01/25 12:53:23;;;;;;;42.10;22.80;;;4.60;99.90;;;;;;5015955;28;20511;-65